createdAt,value
2023-05-19T00:00:27.662Z,422.00
2023-05-19T00:01:27.663Z,419.00
2023-05-19T00:02:27.788Z,420.00
2023-05-19T00:03:27.723Z,419.00
2023-05-19T00:04:27.688Z,420.00
2023-05-19T00:05:27.706Z,420.00
2023-05-19T00:06:27.740Z,422.00
2023-05-19T00:07:27.696Z,421.00
2023-05-19T00:08:27.736Z,419.00
2023-05-19T00:09:27.745Z,421.00
2023-05-19T00:10:27.753Z,421.00
2023-05-19T00:11:27.774Z,420.00
2023-05-19T00:12:27.744Z,419.00
2023-05-19T00:13:27.789Z,419.00
2023-05-19T00:14:27.796Z,421.00
2023-05-19T00:15:27.806Z,421.00
2023-05-19T00:16:27.914Z,420.00
2023-05-19T00:17:27.842Z,420.00
2023-05-19T00:18:27.831Z,421.00
2023-05-19T00:19:27.999Z,421.00
2023-05-19T00:20:27.855Z,423.00
2023-05-19T00:21:27.864Z,425.00
2023-05-19T00:22:27.891Z,425.00
2023-05-19T00:23:27.908Z,426.00
2023-05-19T00:24:27.903Z,426.00
2023-05-19T00:25:27.975Z,425.00
2023-05-19T00:26:27.944Z,425.00
2023-05-19T00:27:27.988Z,424.00
2023-05-19T00:28:27.982Z,422.00
2023-05-19T00:29:27.963Z,421.00
2023-05-19T00:30:27.966Z,420.00
2023-05-19T00:31:27.999Z,420.00
2023-05-19T00:32:28.030Z,420.00
2023-05-19T00:33:28.039Z,419.00
2023-05-19T00:34:28.006Z,418.00
2023-05-19T00:35:28.035Z,419.00
2023-05-19T00:36:28.052Z,418.00
2023-05-19T00:37:28.083Z,418.00
2023-05-19T00:38:28.090Z,416.00
2023-05-19T00:39:28.095Z,417.00
2023-05-19T00:40:28.123Z,420.00
2023-05-19T00:41:28.127Z,418.00
2023-05-19T00:42:28.117Z,418.00
2023-05-19T00:43:28.119Z,417.00
2023-05-19T00:44:28.131Z,415.00
2023-05-19T00:45:28.180Z,413.00
2023-05-19T00:46:28.194Z,410.00
2023-05-19T00:47:28.276Z,410.00
2023-05-19T00:48:28.212Z,412.00
2023-05-19T00:49:28.201Z,412.00
2023-05-19T00:50:28.218Z,413.00
2023-05-19T00:51:28.240Z,416.00
2023-05-19T00:52:28.265Z,419.00
2023-05-19T00:53:28.242Z,419.00
2023-05-19T00:54:28.245Z,421.00
2023-05-19T00:55:28.263Z,420.00
2023-05-19T00:56:28.287Z,420.00
2023-05-19T00:57:28.278Z,419.00
2023-05-19T00:58:28.296Z,417.00
2023-05-19T00:59:28.304Z,413.00
2023-05-19T01:00:28.386Z,411.00
2023-05-19T01:01:28.478Z,408.00
2023-05-19T01:02:28.353Z,411.00
2023-05-19T01:03:28.424Z,413.00
2023-05-19T01:04:28.367Z,413.00
2023-05-19T01:05:28.361Z,414.00
2023-05-19T01:06:28.394Z,416.00
2023-05-19T01:07:28.400Z,417.00
2023-05-19T01:08:28.439Z,419.00
2023-05-19T01:09:28.427Z,418.00
2023-05-19T01:10:28.461Z,423.00
2023-05-19T01:11:28.434Z,423.00
2023-05-19T01:12:28.484Z,422.00
2023-05-19T01:13:28.513Z,422.00
2023-05-19T01:14:28.494Z,422.00
2023-05-19T01:15:28.514Z,421.00
2023-05-19T01:16:28.560Z,420.00
2023-05-19T01:17:28.627Z,419.00
2023-05-19T01:18:28.544Z,419.00
2023-05-19T01:19:28.547Z,418.00
2023-05-19T01:20:28.553Z,418.00
2023-05-19T01:21:28.662Z,417.00
2023-05-19T01:22:28.630Z,417.00
2023-05-19T01:23:28.665Z,420.00
2023-05-19T01:24:28.666Z,420.00
2023-05-19T01:25:28.666Z,421.00
2023-05-19T01:26:28.699Z,420.00
2023-05-19T01:27:28.695Z,419.00
2023-05-19T01:28:28.679Z,420.00
2023-05-19T01:29:28.704Z,420.00
2023-05-19T01:30:28.759Z,419.00
2023-05-19T01:31:28.788Z,419.00
2023-05-19T01:32:28.804Z,419.00
2023-05-19T01:33:28.745Z,416.00
2023-05-19T01:34:28.775Z,418.00
2023-05-19T01:35:28.844Z,421.00
2023-05-19T01:36:28.842Z,420.00
2023-05-19T01:37:28.826Z,421.00
2023-05-19T01:38:28.850Z,419.00
2023-05-19T01:39:28.903Z,419.00
2023-05-19T01:40:28.984Z,421.00
2023-05-19T01:41:28.939Z,422.00
2023-05-19T01:42:28.953Z,421.00
2023-05-19T01:43:28.953Z,420.00
2023-05-19T01:44:29.021Z,418.00
2023-05-19T01:45:28.969Z,419.00
2023-05-19T01:46:29.132Z,418.00
2023-05-19T01:47:29.074Z,417.00
2023-05-19T01:48:29.080Z,418.00
2023-05-19T01:49:29.061Z,418.00
2023-05-19T01:50:29.166Z,419.00
2023-05-19T01:51:29.071Z,418.00
2023-05-19T01:52:29.128Z,418.00
2023-05-19T01:53:29.233Z,416.00
2023-05-19T01:54:29.122Z,416.00
2023-05-19T01:55:29.204Z,416.00
2023-05-19T01:56:29.210Z,417.00
2023-05-19T01:57:29.224Z,414.00
2023-05-19T01:58:29.232Z,414.00
2023-05-19T01:59:29.267Z,416.00
2023-05-19T02:00:29.258Z,416.00
2023-05-19T02:01:29.373Z,416.00
2023-05-19T02:02:29.362Z,418.00
2023-05-19T02:03:29.359Z,417.00
2023-05-19T02:04:29.523Z,419.00
2023-05-19T02:05:29.424Z,422.00
2023-05-19T02:06:29.413Z,423.00
2023-05-19T02:07:29.431Z,422.00
2023-05-19T02:08:29.445Z,420.00
2023-05-19T02:09:29.438Z,421.00
2023-05-19T02:10:29.604Z,421.00
2023-05-19T02:11:29.560Z,422.00
2023-05-19T02:12:29.536Z,420.00
2023-05-19T02:13:29.564Z,419.00
2023-05-19T02:14:29.578Z,419.00
2023-05-19T02:15:29.629Z,418.00
2023-05-19T02:16:29.627Z,417.00
2023-05-19T02:17:29.702Z,416.00
2023-05-19T02:18:29.657Z,415.00
2023-05-19T02:19:29.743Z,413.00
2023-05-19T02:20:29.815Z,413.00
2023-05-19T02:21:29.747Z,411.00
2023-05-19T02:22:29.708Z,413.00
2023-05-19T02:23:29.793Z,413.00
2023-05-19T02:24:29.810Z,413.00
2023-05-19T02:25:29.807Z,413.00
2023-05-19T02:26:29.853Z,414.00
2023-05-19T02:27:29.861Z,417.00
2023-05-19T02:28:29.858Z,417.00
2023-05-19T02:29:29.935Z,414.00
2023-05-19T02:30:30.017Z,415.00
2023-05-19T02:31:29.971Z,418.00
2023-05-19T02:32:29.989Z,419.00
2023-05-19T02:33:30.012Z,421.00
2023-05-19T02:34:29.995Z,422.00
2023-05-19T02:35:30.079Z,424.00
2023-05-19T02:36:30.030Z,425.00
2023-05-19T02:37:30.181Z,424.00
2023-05-19T02:38:30.103Z,423.00
2023-05-19T02:39:30.101Z,420.00
2023-05-19T02:40:30.288Z,422.00
2023-05-19T02:41:30.165Z,421.00
2023-05-19T02:42:30.154Z,420.00
2023-05-19T02:43:30.179Z,420.00
2023-05-19T02:44:30.184Z,419.00
2023-05-19T02:45:30.176Z,418.00
2023-05-19T02:46:30.218Z,416.00
2023-05-19T02:47:30.274Z,415.00
2023-05-19T02:48:30.270Z,416.00
2023-05-19T02:49:30.295Z,419.00
2023-05-19T02:50:30.431Z,417.00
2023-05-19T02:51:30.332Z,418.00
2023-05-19T02:52:30.354Z,415.00
2023-05-19T02:53:30.333Z,412.00
2023-05-19T02:54:30.351Z,413.00
2023-05-19T02:55:30.397Z,414.00
2023-05-19T02:56:30.434Z,415.00
2023-05-19T02:57:30.432Z,415.00
2023-05-19T02:58:30.436Z,414.00
2023-05-19T02:59:30.474Z,415.00
2023-05-19T03:00:30.592Z,413.00
2023-05-19T03:01:30.563Z,412.00
2023-05-19T03:02:30.612Z,411.00
2023-05-19T03:03:30.713Z,408.00
2023-05-19T03:04:30.584Z,408.00
2023-05-19T03:05:30.621Z,407.00
2023-05-19T03:06:30.641Z,410.00
2023-05-19T03:07:30.644Z,408.00
2023-05-19T03:08:30.715Z,408.00
2023-05-19T03:09:30.728Z,405.00
2023-05-19T03:10:30.903Z,407.00
2023-05-19T03:11:30.756Z,409.00
2023-05-19T03:12:30.776Z,411.00
2023-05-19T03:13:30.785Z,410.00
2023-05-19T03:14:30.849Z,408.00
2023-05-19T03:15:30.873Z,408.00
2023-05-19T03:16:30.924Z,410.00
2023-05-19T03:17:30.965Z,412.00
2023-05-19T03:18:30.950Z,411.00
2023-05-19T03:19:30.921Z,413.00
2023-05-19T03:20:31.154Z,414.00
2023-05-19T03:21:30.981Z,413.00
2023-05-19T03:22:31.015Z,413.00
2023-05-19T03:23:31.024Z,412.00
2023-05-19T03:24:31.029Z,413.00
2023-05-19T03:25:31.067Z,412.00
2023-05-19T03:26:31.106Z,413.00
2023-05-19T03:27:31.125Z,413.00
2023-05-19T03:28:31.164Z,412.00
2023-05-19T03:29:31.175Z,414.00
2023-05-19T03:30:32.081Z,413.00
2023-05-19T03:31:31.230Z,415.00
2023-05-19T03:32:31.384Z,416.00
2023-05-19T03:33:31.312Z,416.00
2023-05-19T03:34:31.292Z,416.00
2023-05-19T03:35:31.286Z,415.00
2023-05-19T03:36:31.316Z,414.00
2023-05-19T03:37:31.350Z,412.00
2023-05-19T03:38:31.415Z,412.00
2023-05-19T03:39:31.390Z,410.00
2023-05-19T03:40:31.634Z,412.00
2023-05-19T03:41:31.439Z,411.00
2023-05-19T03:42:31.470Z,414.00
2023-05-19T03:43:31.519Z,415.00
2023-05-19T03:44:31.505Z,413.00
2023-05-19T03:45:31.590Z,413.00
2023-05-19T03:46:31.566Z,411.00
2023-05-19T03:47:31.676Z,412.00
2023-05-19T03:48:31.618Z,412.00
2023-05-19T03:49:31.687Z,414.00
2023-05-19T03:50:31.960Z,414.00
2023-05-19T03:51:31.747Z,415.00
2023-05-19T03:52:31.743Z,415.00
2023-05-19T03:53:31.740Z,414.00
2023-05-19T03:54:31.785Z,413.00
2023-05-19T03:55:31.832Z,412.00
2023-05-19T03:56:31.807Z,410.00
2023-05-19T03:57:31.895Z,407.00
2023-05-19T03:58:31.867Z,407.00
2023-05-19T03:59:31.938Z,406.00
2023-05-19T04:00:32.145Z,407.00
2023-05-19T04:01:31.967Z,408.00
2023-05-19T04:02:32.185Z,410.00
2023-05-19T04:03:32.094Z,411.00
2023-05-19T04:04:32.097Z,414.00
2023-05-19T04:05:32.118Z,416.00
2023-05-19T04:06:32.104Z,416.00
2023-05-19T04:07:32.144Z,417.00
2023-05-19T04:08:32.246Z,417.00
2023-05-19T04:09:32.238Z,419.00
2023-05-19T04:10:32.486Z,423.00
2023-05-19T04:11:32.320Z,427.00
2023-05-19T04:12:32.319Z,430.00
2023-05-19T04:13:32.333Z,429.00
2023-05-19T04:14:32.404Z,430.00
2023-05-19T04:15:32.512Z,431.00
2023-05-19T04:16:32.550Z,436.00
2023-05-19T04:17:32.552Z,437.00
2023-05-19T04:18:32.578Z,437.00
2023-05-19T04:19:32.583Z,438.00
2023-05-19T04:20:32.822Z,440.00
2023-05-19T04:21:32.734Z,439.00
2023-05-19T04:22:32.720Z,442.00
2023-05-19T04:23:32.764Z,446.00
2023-05-19T04:24:32.793Z,446.00
2023-05-19T04:25:32.856Z,444.00
2023-05-19T04:26:32.905Z,444.00
2023-05-19T04:27:32.961Z,443.00
2023-05-19T04:28:33.010Z,445.00
2023-05-19T04:29:33.050Z,445.00
2023-05-19T04:30:33.295Z,447.00
2023-05-19T04:31:33.163Z,449.00
2023-05-19T04:32:33.229Z,451.00
2023-05-19T04:33:33.206Z,450.00
2023-05-19T04:34:33.254Z,453.00
2023-05-19T04:35:33.298Z,453.00
2023-05-19T04:36:33.315Z,454.00
2023-05-19T04:37:33.375Z,453.00
2023-05-19T04:38:33.453Z,454.00
2023-05-19T04:39:33.462Z,452.00
2023-05-19T04:40:33.710Z,449.00
2023-05-19T04:41:33.526Z,449.00
2023-05-19T04:42:33.544Z,448.00
2023-05-19T04:43:33.607Z,450.00
2023-05-19T04:44:33.646Z,452.00
2023-05-19T04:45:33.653Z,453.00
2023-05-19T04:46:33.781Z,454.00
2023-05-19T04:47:33.752Z,453.00
2023-05-19T04:48:33.755Z,452.00
2023-05-19T04:49:33.788Z,452.00
2023-05-19T04:50:34.004Z,454.00
2023-05-19T04:51:33.903Z,453.00
2023-05-19T04:52:33.909Z,451.00
2023-05-19T04:53:33.909Z,448.00
2023-05-19T04:54:33.957Z,448.00
2023-05-19T04:55:33.999Z,448.00
2023-05-19T04:56:34.000Z,449.00
2023-05-19T04:57:34.025Z,449.00
2023-05-19T04:58:34.047Z,446.00
2023-05-19T04:59:34.082Z,446.00
2023-05-19T05:00:34.313Z,446.00
2023-05-19T05:01:34.238Z,446.00
2023-05-19T05:02:34.175Z,448.00
2023-05-19T05:03:34.280Z,451.00
2023-05-19T05:04:34.188Z,449.00
2023-05-19T05:05:34.193Z,450.00
2023-05-19T05:06:34.210Z,451.00
2023-05-19T05:07:34.226Z,450.00
2023-05-19T05:08:34.288Z,449.00
2023-05-19T05:09:34.310Z,451.00
2023-05-19T05:10:34.484Z,451.00
2023-05-19T05:11:34.363Z,449.00
2023-05-19T05:12:34.361Z,449.00
2023-05-19T05:13:34.393Z,446.00
2023-05-19T05:14:34.428Z,447.00
2023-05-19T05:15:34.435Z,447.00
2023-05-19T05:16:34.487Z,446.00
2023-05-19T05:17:34.580Z,446.00
2023-05-19T05:18:34.535Z,450.00
2023-05-19T05:19:34.540Z,450.00
2023-05-19T05:20:34.684Z,450.00
2023-05-19T05:21:34.596Z,450.00
2023-05-19T05:22:34.595Z,445.00
2023-05-19T05:23:34.617Z,444.00
2023-05-19T05:24:34.657Z,447.00
2023-05-19T05:25:34.861Z,450.00
2023-05-19T05:26:34.753Z,450.00
2023-05-19T05:27:34.718Z,447.00
2023-05-19T05:28:34.746Z,447.00
2023-05-19T05:29:34.819Z,446.00
2023-05-19T05:30:34.806Z,447.00
2023-05-19T05:31:34.823Z,448.00
2023-05-19T05:32:34.983Z,450.00
2023-05-19T05:33:34.972Z,451.00
2023-05-19T05:34:34.864Z,450.00
2023-05-19T05:35:34.927Z,450.00
2023-05-19T05:36:34.872Z,452.00
2023-05-19T05:37:34.929Z,451.00
2023-05-19T05:38:34.934Z,451.00
2023-05-19T05:39:34.929Z,453.00
2023-05-19T05:40:34.977Z,454.00
2023-05-19T05:41:35.012Z,453.00
2023-05-19T05:42:34.992Z,452.00
2023-05-19T05:43:35.035Z,450.00
2023-05-19T05:44:35.054Z,452.00
2023-05-19T05:45:35.082Z,452.00
2023-05-19T05:46:35.212Z,451.00
2023-05-19T05:47:35.125Z,448.00
2023-05-19T05:48:35.089Z,447.00
2023-05-19T05:49:35.093Z,446.00
2023-05-19T05:50:35.108Z,445.00
2023-05-19T05:51:35.120Z,445.00
2023-05-19T05:52:35.114Z,447.00
2023-05-19T05:53:35.152Z,447.00
2023-05-19T05:54:35.214Z,449.00
2023-05-19T05:55:35.453Z,448.00
2023-05-19T05:56:35.177Z,450.00
2023-05-19T05:57:35.293Z,449.00
2023-05-19T05:58:37.226Z,447.00
2023-05-19T05:59:35.253Z,446.00
2023-05-19T06:00:35.540Z,448.00
2023-05-19T06:01:35.719Z,451.00
2023-05-19T06:02:35.335Z,448.00
2023-05-19T06:03:35.264Z,443.00
2023-05-19T06:04:35.239Z,440.00
2023-05-19T06:05:35.272Z,439.00
2023-05-19T06:06:35.282Z,438.00
2023-05-19T06:07:35.271Z,437.00
2023-05-19T06:08:35.269Z,439.00
2023-05-19T06:09:35.320Z,440.00
2023-05-19T06:10:35.859Z,442.00
2023-05-19T06:11:35.288Z,446.00
2023-05-19T06:12:35.304Z,445.00
2023-05-19T06:13:35.314Z,443.00
2023-05-19T06:14:35.315Z,442.00
2023-05-19T06:15:35.335Z,442.00
2023-05-19T06:16:35.359Z,441.00
2023-05-19T06:17:35.337Z,440.00
2023-05-19T06:18:35.311Z,441.00
2023-05-19T06:19:35.338Z,445.00
2023-05-19T06:20:35.496Z,449.00
2023-05-19T06:21:35.302Z,449.00
2023-05-19T06:22:35.295Z,449.00
2023-05-19T06:23:35.348Z,448.00
2023-05-19T06:24:36.270Z,446.00
2023-05-19T06:25:35.413Z,444.00
2023-05-19T06:26:35.354Z,445.00
2023-05-19T06:27:35.379Z,446.00
2023-05-19T06:28:35.394Z,446.00
2023-05-19T06:29:35.388Z,443.00
2023-05-19T06:30:35.492Z,441.00
2023-05-19T06:31:35.408Z,441.00
2023-05-19T06:32:35.473Z,438.00
2023-05-19T06:33:35.369Z,441.00
2023-05-19T06:34:35.392Z,442.00
2023-05-19T06:35:35.435Z,443.00
2023-05-19T06:36:35.383Z,446.00
2023-05-19T06:37:35.398Z,446.00
2023-05-19T06:38:35.379Z,446.00
2023-05-19T06:39:35.370Z,448.00
2023-05-19T06:40:35.447Z,449.00
2023-05-19T06:41:35.399Z,445.00
2023-05-19T06:42:35.373Z,446.00
2023-05-19T06:43:35.372Z,444.00
2023-05-19T06:44:35.352Z,444.00
2023-05-19T06:45:35.360Z,443.00
2023-05-19T06:46:35.431Z,440.00
2023-05-19T06:47:35.387Z,439.00
2023-05-19T06:48:35.362Z,439.00
2023-05-19T06:49:35.350Z,439.00
2023-05-19T06:50:35.525Z,437.00
2023-05-19T06:51:35.425Z,437.00
2023-05-19T06:52:35.441Z,436.00
2023-05-19T06:53:35.456Z,439.00
2023-05-19T06:54:35.480Z,436.00
2023-05-19T06:55:41.277Z,437.00
2023-05-19T06:56:36.539Z,436.00
2023-05-19T06:57:35.542Z,436.00
2023-05-19T06:58:35.512Z,437.00
2023-05-19T06:59:35.535Z,438.00
2023-05-19T07:00:35.683Z,440.00
2023-05-19T07:01:35.575Z,440.00
2023-05-19T07:02:35.537Z,442.00
2023-05-19T07:03:35.552Z,442.00
2023-05-19T07:04:35.498Z,442.00
2023-05-19T07:05:35.563Z,441.00
2023-05-19T07:06:35.595Z,442.00
2023-05-19T07:07:35.653Z,443.00
2023-05-19T07:08:35.705Z,443.00
2023-05-19T07:09:35.797Z,444.00
2023-05-19T07:10:35.834Z,447.00
2023-05-19T07:11:35.913Z,446.00
2023-05-19T07:12:35.954Z,446.00
2023-05-19T07:13:36.028Z,447.00
2023-05-19T07:14:36.065Z,445.00
2023-05-19T07:15:36.168Z,445.00
2023-05-19T07:16:36.237Z,443.00
2023-05-19T07:17:36.263Z,442.00
2023-05-19T07:18:36.314Z,443.00
2023-05-19T07:19:36.351Z,444.00
2023-05-19T07:20:36.417Z,446.00
2023-05-19T07:21:36.484Z,447.00
2023-05-19T07:22:36.543Z,448.00
2023-05-19T07:23:36.575Z,449.00
2023-05-19T07:24:36.641Z,451.00
2023-05-19T07:25:36.696Z,452.00
2023-05-19T07:26:36.711Z,450.00
2023-05-19T07:27:36.776Z,451.00
2023-05-19T07:28:37.755Z,453.00
2023-05-19T07:29:36.884Z,452.00
2023-05-19T07:30:36.950Z,452.00
2023-05-19T07:31:37.051Z,453.00
2023-05-19T07:32:37.129Z,452.00
2023-05-19T07:33:37.116Z,451.00
2023-05-19T07:34:37.199Z,449.00
2023-05-19T07:35:37.331Z,448.00
2023-05-19T07:36:37.342Z,449.00
2023-05-19T07:37:37.445Z,451.00
2023-05-19T07:38:37.504Z,451.00
2023-05-19T07:39:37.521Z,449.00
2023-05-19T07:40:37.557Z,451.00
2023-05-19T07:41:37.604Z,449.00
2023-05-19T07:42:37.707Z,450.00
2023-05-19T07:43:37.750Z,452.00
2023-05-19T07:44:37.789Z,453.00
2023-05-19T07:45:37.894Z,454.00
2023-05-19T07:46:38.038Z,453.00
2023-05-19T07:47:37.950Z,453.00
2023-05-19T07:48:37.976Z,453.00
2023-05-19T07:49:38.038Z,452.00
2023-05-19T07:50:38.051Z,453.00
2023-05-19T07:51:38.074Z,454.00
2023-05-19T07:52:38.148Z,454.00
2023-05-19T07:53:38.228Z,451.00
2023-05-19T07:54:38.237Z,451.00
2023-05-19T07:55:38.269Z,451.00
2023-05-19T07:56:38.330Z,449.00
2023-05-19T07:57:38.381Z,449.00
2023-05-19T07:58:38.382Z,449.00
2023-05-19T07:59:38.398Z,450.00
2023-05-19T08:00:38.444Z,449.00
2023-05-19T08:01:38.455Z,451.00
2023-05-19T08:02:38.616Z,451.00
2023-05-19T08:03:38.627Z,451.00
2023-05-19T08:04:38.667Z,453.00
2023-05-19T08:05:38.607Z,453.00
2023-05-19T08:06:38.633Z,453.00
2023-05-19T08:07:38.666Z,454.00
2023-05-19T08:08:38.724Z,453.00
2023-05-19T08:09:38.710Z,454.00
2023-05-19T08:10:38.787Z,455.00
2023-05-19T08:11:38.794Z,453.00
2023-05-19T08:12:38.800Z,454.00
2023-05-19T08:13:38.878Z,456.00
2023-05-19T08:14:38.884Z,458.00
2023-05-19T08:15:38.927Z,455.00
2023-05-19T08:16:38.943Z,452.00
2023-05-19T08:17:39.014Z,451.00
2023-05-19T08:18:39.051Z,454.00
2023-05-19T08:19:39.051Z,455.00
2023-05-19T08:20:39.105Z,453.00
2023-05-19T08:21:39.142Z,452.00
2023-05-19T08:22:39.186Z,453.00
2023-05-19T08:23:39.146Z,453.00
2023-05-19T08:24:39.194Z,453.00
2023-05-19T08:25:39.267Z,455.00
2023-05-19T08:26:39.248Z,452.00
2023-05-19T08:27:39.247Z,449.00
2023-05-19T08:28:39.289Z,449.00
2023-05-19T08:29:39.313Z,452.00
2023-05-19T08:30:39.334Z,451.00
2023-05-19T08:31:39.384Z,451.00
2023-05-19T08:32:39.377Z,449.00
2023-05-19T08:33:39.376Z,448.00
2023-05-19T08:34:39.409Z,449.00
2023-05-19T08:35:39.406Z,449.00
2023-05-19T08:36:39.424Z,449.00
2023-05-19T08:37:39.401Z,450.00
2023-05-19T08:38:39.435Z,449.00
2023-05-19T08:39:39.430Z,448.00
2023-05-19T08:40:39.425Z,450.00
2023-05-19T08:41:39.447Z,448.00
2023-05-19T08:42:39.441Z,448.00
2023-05-19T08:43:39.467Z,447.00
2023-05-19T08:44:39.509Z,447.00
2023-05-19T08:45:39.469Z,446.00
2023-05-19T08:46:39.570Z,447.00
2023-05-19T08:47:39.549Z,449.00
2023-05-19T08:48:39.481Z,449.00
2023-05-19T08:49:39.455Z,451.00
2023-05-19T08:50:40.012Z,452.00
2023-05-19T08:51:39.481Z,449.00
2023-05-19T08:52:39.444Z,449.00
2023-05-19T08:53:39.508Z,450.00
2023-05-19T08:54:39.465Z,449.00
2023-05-19T08:55:39.465Z,449.00
2023-05-19T08:56:39.528Z,450.00
2023-05-19T08:57:39.489Z,448.00
2023-05-19T08:58:39.479Z,447.00
2023-05-19T08:59:39.490Z,447.00
2023-05-19T09:00:39.505Z,445.00
2023-05-19T09:01:39.518Z,444.00
2023-05-19T09:02:50.337Z,446.00
2023-05-19T09:03:40.598Z,445.00
2023-05-19T09:04:39.568Z,444.00
2023-05-19T09:05:39.524Z,443.00
2023-05-19T09:06:39.481Z,444.00
2023-05-19T09:07:39.501Z,443.00
2023-05-19T09:08:39.466Z,444.00
2023-05-19T09:09:39.464Z,444.00
2023-05-19T09:10:39.475Z,443.00
2023-05-19T09:11:39.434Z,444.00
2023-05-19T09:12:39.420Z,445.00
2023-05-19T09:13:39.424Z,447.00
2023-05-19T09:14:39.387Z,445.00
2023-05-19T09:15:39.398Z,446.00
2023-05-19T09:16:39.445Z,446.00
2023-05-19T09:17:39.464Z,446.00
2023-05-19T09:18:39.485Z,446.00
2023-05-19T09:19:39.402Z,444.00
2023-05-19T09:20:39.369Z,445.00
2023-05-19T09:21:39.370Z,442.00
2023-05-19T09:22:39.363Z,442.00
2023-05-19T09:23:39.377Z,444.00
2023-05-19T09:24:39.348Z,446.00
2023-05-19T09:25:39.336Z,447.00
2023-05-19T09:26:39.357Z,448.00
2023-05-19T09:27:39.331Z,449.00
2023-05-19T09:28:39.338Z,449.00
2023-05-19T09:29:39.334Z,450.00
2023-05-19T09:30:39.307Z,449.00
2023-05-19T09:31:39.319Z,449.00
2023-05-19T09:32:39.318Z,447.00
2023-05-19T09:33:39.416Z,446.00
2023-05-19T09:34:39.275Z,446.00
2023-05-19T09:35:39.290Z,451.00
2023-05-19T09:36:39.286Z,451.00
2023-05-19T09:37:39.366Z,450.00
2023-05-19T09:38:39.373Z,450.00
2023-05-19T09:39:39.446Z,452.00
2023-05-19T09:40:39.526Z,450.00
2023-05-19T09:41:39.568Z,451.00
2023-05-19T09:42:39.625Z,449.00
2023-05-19T09:43:39.673Z,447.00
2023-05-19T09:44:39.752Z,446.00
2023-05-19T09:45:39.884Z,446.00
2023-05-19T09:46:39.990Z,447.00
2023-05-19T09:47:39.992Z,447.00
2023-05-19T09:48:39.982Z,449.00
2023-05-19T09:49:40.042Z,449.00
2023-05-19T09:50:40.136Z,450.00
2023-05-19T09:51:40.189Z,452.00
2023-05-19T09:52:40.225Z,452.00
2023-05-19T09:53:40.398Z,452.00
2023-05-19T09:54:40.324Z,452.00
2023-05-19T09:55:40.375Z,453.00
2023-05-19T09:56:40.460Z,453.00
2023-05-19T09:57:40.519Z,452.00
2023-05-19T09:58:40.592Z,452.00
2023-05-19T09:59:40.653Z,452.00
2023-05-19T10:00:40.653Z,452.00
2023-05-19T10:01:40.777Z,453.00
2023-05-19T10:02:40.894Z,452.00
2023-05-19T10:03:40.945Z,454.00
2023-05-19T10:04:40.922Z,452.00
2023-05-19T10:05:40.901Z,452.00
2023-05-19T10:06:40.927Z,450.00
2023-05-19T10:07:41.043Z,449.00
2023-05-19T10:08:41.040Z,449.00
2023-05-19T10:09:41.134Z,450.00
2023-05-19T10:10:41.169Z,450.00
2023-05-19T10:11:41.222Z,450.00
2023-05-19T10:12:41.280Z,449.00
2023-05-19T10:13:41.348Z,448.00
2023-05-19T10:14:41.291Z,449.00
2023-05-19T10:15:57.252Z,450.00
2023-05-19T10:16:42.390Z,452.00
2023-05-19T10:17:41.371Z,452.00
2023-05-19T10:18:41.353Z,453.00
2023-05-19T10:19:41.316Z,453.00
2023-05-19T10:20:41.306Z,453.00
2023-05-19T10:21:41.391Z,453.00
2023-05-19T10:22:41.315Z,453.00
2023-05-19T10:23:41.324Z,455.00
2023-05-19T10:24:41.313Z,454.00
2023-05-19T10:25:41.286Z,454.00
2023-05-19T10:26:41.294Z,452.00
2023-05-19T10:27:41.250Z,454.00
2023-05-19T10:28:41.277Z,455.00
2023-05-19T10:29:41.323Z,457.00
2023-05-19T10:30:41.344Z,456.00
2023-05-19T10:31:41.404Z,458.00
2023-05-19T10:32:42.022Z,457.00
2023-05-19T10:33:41.448Z,457.00
2023-05-19T10:34:41.510Z,456.00
2023-05-19T10:35:41.501Z,455.00
2023-05-19T10:36:41.588Z,452.00
2023-05-19T10:37:41.546Z,453.00
2023-05-19T10:38:41.577Z,453.00
2023-05-19T10:39:41.649Z,453.00
2023-05-19T10:40:41.653Z,452.00
2023-05-19T10:41:41.671Z,452.00
2023-05-19T10:42:41.704Z,456.00
2023-05-19T10:43:41.774Z,459.00
2023-05-19T10:44:41.787Z,461.00
2023-05-19T10:45:41.837Z,464.00
2023-05-19T10:46:41.851Z,464.00
2023-05-19T10:47:41.938Z,465.00
2023-05-19T10:48:41.852Z,465.00
2023-05-19T10:49:41.933Z,467.00
2023-05-19T10:50:41.974Z,467.00
2023-05-19T10:51:41.962Z,465.00
2023-05-19T10:52:41.958Z,462.00
2023-05-19T10:53:42.015Z,463.00
2023-05-19T10:54:42.013Z,463.00
2023-05-19T10:55:42.064Z,463.00
2023-05-19T10:56:42.080Z,462.00
2023-05-19T10:57:42.124Z,462.00
2023-05-19T10:58:42.285Z,463.00
2023-05-19T10:59:42.130Z,462.00
2023-05-19T11:00:42.181Z,462.00
2023-05-19T11:01:42.238Z,461.00
2023-05-19T11:02:42.376Z,461.00
2023-05-19T11:03:42.990Z,462.00
2023-05-19T11:04:42.228Z,460.00
2023-05-19T11:05:42.299Z,458.00
2023-05-19T11:06:42.255Z,459.00
2023-05-19T11:07:42.349Z,457.00
2023-05-19T11:08:42.311Z,459.00
2023-05-19T11:09:42.310Z,458.00
2023-05-19T11:10:42.337Z,460.00
2023-05-19T11:11:42.332Z,461.00
2023-05-19T11:12:42.391Z,463.00
2023-05-19T11:13:42.382Z,462.00
2023-05-19T11:14:42.395Z,461.00
2023-05-19T11:15:42.367Z,461.00
2023-05-19T11:16:42.441Z,461.00
2023-05-19T11:17:42.472Z,460.00
2023-05-19T11:18:42.476Z,457.00
2023-05-19T11:19:42.438Z,456.00
2023-05-19T11:20:42.463Z,456.00
2023-05-19T11:21:42.446Z,458.00
2023-05-19T11:22:42.413Z,459.00
2023-05-19T11:23:42.477Z,461.00
2023-05-19T11:24:42.463Z,460.00
2023-05-19T11:25:42.474Z,462.00
2023-05-19T11:26:42.484Z,463.00
2023-05-19T11:27:42.483Z,463.00
2023-05-19T11:28:42.506Z,463.00
2023-05-19T11:29:42.493Z,463.00
2023-05-19T11:30:42.512Z,463.00
2023-05-19T11:31:42.582Z,462.00
2023-05-19T11:32:42.535Z,459.00
2023-05-19T11:33:42.528Z,457.00
2023-05-19T11:34:42.520Z,454.00
2023-05-19T11:35:42.548Z,453.00
2023-05-19T11:36:42.550Z,452.00
2023-05-19T11:37:42.631Z,454.00
2023-05-19T11:38:42.509Z,453.00
2023-05-19T11:39:42.566Z,453.00
2023-05-19T11:40:42.568Z,453.00
2023-05-19T11:41:42.544Z,452.00
2023-05-19T11:42:42.535Z,451.00
2023-05-19T11:43:42.607Z,453.00
2023-05-19T11:44:42.552Z,453.00
2023-05-19T11:45:42.553Z,453.00
2023-05-19T11:46:42.618Z,452.00
2023-05-19T11:48:00.249Z,451.00
2023-05-19T11:48:43.608Z,452.00
2023-05-19T11:49:42.537Z,452.00
2023-05-19T11:50:42.507Z,452.00
2023-05-19T11:51:42.517Z,452.00
2023-05-19T11:52:42.509Z,451.00
2023-05-19T11:53:42.494Z,451.00
2023-05-19T11:54:42.507Z,452.00
2023-05-19T11:55:42.538Z,454.00
2023-05-19T11:56:42.472Z,454.00
2023-05-19T11:57:47.012Z,453.00
2023-05-19T11:58:43.470Z,451.00
2023-05-19T11:59:42.427Z,450.00
2023-05-19T12:00:42.443Z,451.00
2023-05-19T12:01:42.404Z,453.00
2023-05-19T12:02:42.560Z,452.00
2023-05-19T12:03:42.551Z,451.00
2023-05-19T12:04:42.455Z,449.00
2023-05-19T12:05:43.759Z,449.00
2023-05-19T12:06:42.513Z,452.00
2023-05-19T12:07:42.391Z,453.00
2023-05-19T12:08:42.391Z,454.00
2023-05-19T12:09:42.372Z,454.00
2023-05-19T12:10:42.420Z,452.00
2023-05-19T12:11:42.339Z,452.00
2023-05-19T12:12:42.377Z,453.00
2023-05-19T12:13:42.378Z,452.00
2023-05-19T12:14:42.340Z,449.00
2023-05-19T12:15:42.334Z,448.00
2023-05-19T12:16:42.339Z,448.00
2023-05-19T12:17:42.323Z,448.00
2023-05-19T12:18:42.371Z,446.00
2023-05-19T12:19:42.345Z,446.00
2023-05-19T12:20:42.307Z,446.00
2023-05-19T12:21:42.334Z,444.00
2023-05-19T12:22:42.348Z,444.00
2023-05-19T12:23:42.307Z,445.00
2023-05-19T12:24:42.356Z,444.00
2023-05-19T12:25:42.336Z,446.00
2023-05-19T12:26:42.375Z,446.00
2023-05-19T12:27:42.341Z,448.00
2023-05-19T12:28:42.332Z,449.00